BLF417 EFTU-ESSA
Flight info
| Callsign | BLF417 |
|---|---|
| Flight time | N/A |
| Altitude | 24000 |
| Route | LIVLU DCT RUNGA N872 XILAN |
| Aircraft | RJ85/M-SDFGIRWY/Q |
Departure
| Time | 2026-04-25 17:01 |
|---|---|
| Airport | Turku Airport (EFTU) |
Arrival
| Time | N/A |
|---|---|
| Airport | Stockholm-Arlanda Airport (ESSA) |
| Time | Latitude | Longitude | Altitude | Speed | Heading |
|---|---|---|---|---|---|
| 2026-04-25 16:31 | 60.51130 | 22.27284 | 176 ft | 0 kts | 148° |
| 2026-04-25 16:54 | 60.51130 | 22.27285 | 176 ft | 0 kts | 149° |
| 2026-04-25 16:54 | 60.51120 | 22.27282 | 176 ft | 3 kts | 213° |
| 2026-04-25 16:55 | 60.51122 | 22.27201 | 175 ft | 8 kts | 288° |
| 2026-04-25 16:55 | 60.51149 | 22.27149 | 175 ft | 6 kts | 358° |
| 2026-04-25 16:55 | 60.51190 | 22.27183 | 175 ft | 7 kts | 30° |
| 2026-04-25 16:55 | 60.51236 | 22.27237 | 174 ft | 9 kts | 30° |
| 2026-04-25 16:56 | 60.51302 | 22.27310 | 171 ft | 12 kts | 29° |
| 2026-04-25 16:56 | 60.51341 | 22.27439 | 168 ft | 12 kts | 87° |
| 2026-04-25 16:56 | 60.51348 | 22.27619 | 165 ft | 13 kts | 85° |
| 2026-04-25 16:56 | 60.51355 | 22.27770 | 163 ft | 9 kts | 85° |
| 2026-04-25 16:57 | 60.51361 | 22.27912 | 160 ft | 11 kts | 86° |
| 2026-04-25 16:57 | 60.51364 | 22.27964 | 159 ft | 12 kts | 84° |
| 2026-04-25 16:57 | 60.51378 | 22.28292 | 152 ft | 12 kts | 85° |
| 2026-04-25 16:57 | 60.51386 | 22.28461 | 149 ft | 11 kts | 82° |
| 2026-04-25 16:58 | 60.51412 | 22.28534 | 148 ft | 0 kts | 22° |
| 2026-04-25 16:58 | 60.51413 | 22.28535 | 148 ft | 1 kts | 21° |
| 2026-04-25 16:59 | 60.51421 | 22.28540 | 148 ft | 3 kts | 13° |
| 2026-04-25 16:59 | 60.51452 | 22.28537 | 148 ft | 6 kts | 344° |
| 2026-04-25 16:59 | 60.51500 | 22.28489 | 150 ft | 9 kts | 308° |
| 2026-04-25 16:59 | 60.51503 | 22.28331 | 151 ft | 18 kts | 266° |
| 2026-04-25 17:00 | 60.51479 | 22.27801 | 160 ft | 60 kts | 265° |
| 2026-04-25 17:00 | 60.51430 | 22.26672 | 170 ft | 98 kts | 265° |
| 2026-04-25 17:00 | 60.51375 | 22.25073 | 233 ft | 120 kts | 266° |
| 2026-04-25 17:00 | 60.51260 | 22.23347 | 427 ft | 129 kts | 271° |
| 2026-04-25 17:01 | 60.51096 | 22.21517 | 696 ft | 133 kts | 271° |
| 2026-04-25 17:01 | 60.50896 | 22.19706 | 1049 ft | 132 kts | 269° |
| 2026-04-25 17:01 | 60.50648 | 22.17937 | 1503 ft | 131 kts | 271° |
| 2026-04-25 17:01 | 60.50490 | 22.16149 | 1957 ft | 124 kts | 283° |
| 2026-04-25 17:02 | 60.50476 | 22.14428 | 2394 ft | 122 kts | 287° |
| 2026-04-25 17:02 | 60.50556 | 22.12581 | 2580 ft | 142 kts | 291° |
| 2026-04-25 17:02 | 60.50305 | 22.10326 | 2673 ft | 188 kts | 255° |
| 2026-04-25 17:02 | 60.50110 | 22.09501 | 2707 ft | 196 kts | 255° |
| 2026-04-25 17:03 | 60.49050 | 22.04936 | 3227 ft | 228 kts | 252° |
| 2026-04-25 17:03 | 60.48313 | 22.01956 | 3608 ft | 245 kts | 251° |
| 2026-04-25 17:03 | 60.47510 | 21.98780 | 3964 ft | 261 kts | 251° |
| 2026-04-25 17:03 | 60.46661 | 21.95427 | 4376 ft | 273 kts | 250° |
| 2026-04-25 17:04 | 60.45774 | 21.91987 | 4826 ft | 278 kts | 250° |
| 2026-04-25 17:04 | 60.44872 | 21.88490 | 5318 ft | 281 kts | 250° |
| 2026-04-25 17:04 | 60.43963 | 21.84965 | 5813 ft | 284 kts | 251° |
| 2026-04-25 17:04 | 60.43052 | 21.81398 | 6321 ft | 283 kts | 251° |
| 2026-04-25 17:05 | 60.42453 | 21.79054 | 6701 ft | 282 kts | 251° |
| 2026-04-25 17:05 | 60.40679 | 21.71958 | 7706 ft | 284 kts | 251° |
| 2026-04-25 17:05 | 60.39783 | 21.68402 | 8161 ft | 285 kts | 251° |
| 2026-04-25 17:06 | 60.38885 | 21.64825 | 8602 ft | 286 kts | 251° |
| 2026-04-25 17:06 | 60.37981 | 21.61232 | 9048 ft | 287 kts | 251° |
| 2026-04-25 17:06 | 60.37082 | 21.57634 | 9475 ft | 287 kts | 251° |
| 2026-04-25 17:06 | 60.36180 | 21.54021 | 9870 ft | 288 kts | 251° |
| 2026-04-25 17:07 | 60.35274 | 21.50406 | 10249 ft | 290 kts | 250° |
| 2026-04-25 17:07 | 60.34344 | 21.46724 | 10732 ft | 301 kts | 249° |
| 2026-04-25 17:07 | 60.33261 | 21.42948 | 11174 ft | 319 kts | 244° |
| 2026-04-25 17:07 | 60.32013 | 21.39127 | 11650 ft | 331 kts | 241° |
| 2026-04-25 17:08 | 60.30715 | 21.35273 | 12279 ft | 334 kts | 241° |
| 2026-04-25 17:08 | 60.29402 | 21.31398 | 12922 ft | 335 kts | 241° |
| 2026-04-25 17:08 | 60.28083 | 21.27501 | 13499 ft | 338 kts | 243° |
| 2026-04-25 17:08 | 60.26775 | 21.23631 | 13978 ft | 340 kts | 241° |
| 2026-04-25 17:09 | 60.25441 | 21.19684 | 14474 ft | 341 kts | 240° |
| 2026-04-25 17:09 | 60.24111 | 21.15730 | 14978 ft | 342 kts | 240° |
| 2026-04-25 17:09 | 60.22781 | 21.11750 | 15476 ft | 343 kts | 242° |
| 2026-04-25 17:09 | 60.21461 | 21.07758 | 15972 ft | 344 kts | 242° |
| 2026-04-25 17:10 | 60.20122 | 21.03740 | 16437 ft | 347 kts | 241° |
| 2026-04-25 17:10 | 60.18762 | 20.99710 | 16930 ft | 349 kts | 241° |
| 2026-04-25 17:10 | 60.17396 | 20.95659 | 17392 ft | 352 kts | 240° |
| 2026-04-25 17:10 | 60.16024 | 20.91573 | 17854 ft | 354 kts | 240° |
| 2026-04-25 17:11 | 60.14640 | 20.87471 | 18269 ft | 355 kts | 242° |
| 2026-04-25 17:11 | 60.13253 | 20.83358 | 18697 ft | 356 kts | 240° |
| 2026-04-25 17:11 | 60.11865 | 20.79230 | 19119 ft | 357 kts | 242° |
| 2026-04-25 17:11 | 60.10473 | 20.75094 | 19501 ft | 359 kts | 240° |
| 2026-04-25 17:12 | 60.09072 | 20.70960 | 19944 ft | 360 kts | 241° |
| 2026-04-25 17:12 | 60.07662 | 20.66806 | 20355 ft | 360 kts | 240° |
| 2026-04-25 17:12 | 60.06258 | 20.62659 | 20747 ft | 362 kts | 240° |
| 2026-04-25 17:12 | 60.04855 | 20.58460 | 21128 ft | 364 kts | 239° |
| 2026-04-25 17:13 | 60.03426 | 20.54277 | 21497 ft | 365 kts | 240° |
| 2026-04-25 17:13 | 60.02471 | 20.51526 | 21787 ft | 365 kts | 237° |
| 2026-04-25 17:13 | 60.00543 | 20.45939 | 22374 ft | 364 kts | 239° |
| 2026-04-25 17:13 | 59.99099 | 20.41737 | 22673 ft | 367 kts | 240° |
| 2026-04-25 17:14 | 59.97646 | 20.37513 | 22931 ft | 371 kts | 240° |
| 2026-04-25 17:14 | 59.96182 | 20.33281 | 23356 ft | 369 kts | 239° |
| 2026-04-25 17:14 | 59.94724 | 20.29032 | 23531 ft | 373 kts | 239° |
| 2026-04-25 17:14 | 59.93266 | 20.24777 | 23598 ft | 369 kts | 238° |
| 2026-04-25 17:15 | 59.91815 | 20.20575 | 23618 ft | 369 kts | 239° |
| 2026-04-25 17:15 | 59.90356 | 20.16351 | 23629 ft | 370 kts | 239° |
| 2026-04-25 17:15 | 59.88877 | 20.12118 | 23634 ft | 373 kts | 239° |
| 2026-04-25 17:15 | 59.87398 | 20.07868 | 23637 ft | 374 kts | 239° |
| 2026-04-25 17:16 | 59.85916 | 20.03612 | 23637 ft | 375 kts | 239° |
| 2026-04-25 17:16 | 59.84417 | 19.99352 | 23640 ft | 376 kts | 238° |
| 2026-04-25 17:16 | 59.82918 | 19.95098 | 23641 ft | 376 kts | 238° |
| 2026-04-25 17:16 | 59.81435 | 19.90855 | 23625 ft | 373 kts | 238° |
| 2026-04-25 17:17 | 59.79960 | 19.86619 | 23631 ft | 373 kts | 238° |
| 2026-04-25 17:17 | 59.78474 | 19.82385 | 23634 ft | 374 kts | 238° |
| 2026-04-25 17:17 | 59.77002 | 19.78221 | 23635 ft | 373 kts | 237° |
| 2026-04-25 17:17 | 59.75593 | 19.73918 | 23617 ft | 370 kts | 245° |
| 2026-04-25 17:18 | 59.74594 | 19.69234 | 23614 ft | 368 kts | 252° |
| 2026-04-25 17:18 | 59.73806 | 19.64418 | 23627 ft | 368 kts | 255° |
| 2026-04-25 17:18 | 59.73108 | 19.59546 | 23636 ft | 367 kts | 256° |
| 2026-04-25 17:18 | 59.72450 | 19.54664 | 23627 ft | 366 kts | 257° |
| 2026-04-25 17:19 | 59.71801 | 19.49755 | 23201 ft | 369 kts | 257° |
| 2026-04-25 17:19 | 59.71154 | 19.44867 | 22428 ft | 365 kts | 257° |
| 2026-04-25 17:19 | 59.70493 | 19.40009 | 21492 ft | 365 kts | 257° |
| 2026-04-25 17:19 | 59.69819 | 19.35151 | 20527 ft | 367 kts | 257° |
| 2026-04-25 17:20 | 59.69140 | 19.30261 | 19521 ft | 368 kts | 257° |
| 2026-04-25 17:20 | 59.68454 | 19.25418 | 18523 ft | 364 kts | 258° |
| 2026-04-25 17:20 | 59.67772 | 19.20631 | 17455 ft | 358 kts | 258° |
| 2026-04-25 17:20 | 59.67106 | 19.15956 | 16328 ft | 349 kts | 258° |
| 2026-04-25 17:21 | 59.66454 | 19.11390 | 15248 ft | 340 kts | 259° |
| 2026-04-25 17:21 | 59.65832 | 19.06938 | 14244 ft | 332 kts | 259° |
| 2026-04-25 17:21 | 59.65225 | 19.02625 | 13623 ft | 321 kts | 259° |
| 2026-04-25 17:21 | 59.64637 | 18.98412 | 13161 ft | 314 kts | 259° |
| 2026-04-25 17:22 | 59.64062 | 18.94296 | 12743 ft | 310 kts | 259° |
| 2026-04-25 17:22 | 59.63681 | 18.91570 | 12492 ft | 311 kts | 259° |
| 2026-04-25 17:22 | 59.62883 | 18.86070 | 12027 ft | 310 kts | 258° |
| 2026-04-25 17:22 | 59.62276 | 18.81979 | 11694 ft | 310 kts | 258° |